McCutcheon Field, North Carolina
Current Conditions -  °F | °C
As of 11:56 PM on Friday 21 Nov 2014 (Local Time) from KNCA Reporting Station
Clear Clear  
Wind Chill: 28°   Ceiling: Unl
Heat Index: 33°   Visibility: 10mi
Dew Point: 20°   Wind: 6mph
Humidity: 59%   Direction: 40°NE
Pressure: 30.55"   Gusts: NA
Location:  34.72°N, 77.45°W
Report Text: KNCA 220456Z AUTO 04005KT 10SM CLR 01/M07 A3055 RMK AO2 SLP347 T00061067 401220006
Loading
Personal Weather Stations






























Interactive Weather Map New forecast layout! Learn more

10-Day Weather Forecast

Advertisements
Track Severe Weather on mobile